Time;durP1;ratioP1;P1;durP2;ratioP2;P2;SDS_P1;SDS_P2;PMS_P1;PMS_P2;Temp;Humidity;BMP_temperature;BMP_pressure;BME280_temperature;BME280_humidity;BME280_pressure;Samples;Min_cycle;Max_cycle;Signal;HPM_P1;HPM_P2
2023/05/01 00:00:17;;;;;;;3.80;3.50;;;;;;;13.08;100.00;96461.06;5069927;28;20213;-66
2023/05/01 00:02:43;;;;;;;4.07;3.67;;;;;;;13.08;100.00;96456.59;5070853;28;20202;-63
2023/05/01 00:05:10;;;;;;;4.63;3.43;;;;;;;12.99;100.00;96454.94;5071115;28;20260;-67
2023/05/01 00:07:36;;;;;;;3.93;3.60;;;;;;;12.97;100.00;96451.59;5070371;28;20199;-67
2023/05/01 00:10:03;;;;;;;5.33;3.77;;;;;;;13.00;100.00;96456.63;5071131;28;20285;-67
2023/05/01 00:12:31;;;;;;;3.73;3.37;;;;;;;12.95;100.00;96454.44;5071711;28;20207;-64
2023/05/01 00:15:00;;;;;;;4.57;3.23;;;;;;;12.93;100.00;96448.44;5072081;28;20213;-66
2023/05/01 00:17:27;;;;;;;4.10;3.50;;;;;;;12.95;100.00;96446.47;5070932;28;20218;-64
2023/05/01 00:19:53;;;;;;;3.73;3.43;;;;;;;12.89;100.00;96447.09;5073934;28;20230;-69
2023/05/01 00:22:21;;;;;;;3.80;3.50;;;;;;;12.91;100.00;96442.47;5072359;28;20293;-66
2023/05/01 00:24:49;;;;;;;3.93;3.63;;;;;;;12.89;100.00;96455.06;5071585;28;20215;-67
2023/05/01 00:27:16;;;;;;;4.30;3.97;;;;;;;12.91;100.00;96442.47;5070805;28;20298;-64
2023/05/01 00:29:52;;;;;;;3.87;3.57;;;;;;;12.87;100.00;96450.91;5071248;28;20211;-64
2023/05/01 00:32:18;;;;;;;4.30;3.90;;;;;;;12.86;100.00;96444.78;5071051;28;20201;-65
2023/05/01 00:34:47;;;;;;;4.00;3.70;;;;;;;12.81;100.00;96447.09;5076037;28;20221;-65
2023/05/01 00:37:16;;;;;;;4.80;4.33;;;;;;;12.75;100.00;96442.41;5085835;28;20230;-65
2023/05/01 00:39:42;;;;;;;5.13;4.00;;;;;;;12.72;100.00;96447.22;5094901;28;20215;-72
2023/05/01 00:42:09;;;;;;;3.83;3.63;;;;;;;12.71;100.00;96440.28;5093173;28;20191;-66
2023/05/01 00:44:35;;;;;;;4.40;3.60;;;;;;;12.69;100.00;96445.72;5094865;28;20178;-67
2023/05/01 00:47:05;;;;;;;4.00;3.70;;;;;;;12.65;100.00;96447.03;5078909;28;20546;-67
2023/05/01 00:49:32;;;;;;;4.70;4.33;;;;;;;12.60;100.00;96444.03;5075766;28;20616;-65
2023/05/01 00:51:59;;;;;;;5.53;4.33;;;;;;;12.49;100.00;96446.97;5076106;28;20211;-66
2023/05/01 00:54:27;;;;;;;4.20;3.90;;;;;;;12.45;100.00;96441.16;5077098;28;21468;-65
2023/05/01 00:56:57;;;;;;;4.00;3.70;;;;;;;12.44;100.00;96443.97;5074039;28;20206;-64
2023/05/01 00:59:24;;;;;;;4.40;4.10;;;;;;;12.45;100.00;96440.31;5075448;28;20186;-71
2023/05/01 01:01:51;;;;;;;4.77;4.10;;;;;;;12.37;100.00;96442.94;5073947;28;20194;-65
2023/05/01 01:04:19;;;;;;;4.70;4.30;;;;;;;12.30;100.00;96441.91;5073223;28;20297;-64
2023/05/01 01:06:51;;;;;;;4.80;4.40;;;;;;;12.22;100.00;96441.88;5072759;28;20214;-64
2023/05/01 01:09:25;;;;;;;4.90;4.47;;;;;;;12.18;100.00;96438.72;5072181;28;20198;-63
2023/05/01 01:12:00;;;;;;;4.40;4.00;;;;;;;12.17;100.00;96441.50;5074093;28;20233;-67
2023/05/01 01:14:32;;;;;;;5.30;4.80;;;;;;;12.11;100.00;96436.84;5073422;28;20208;-66
2023/05/01 01:17:04;;;;;;;5.07;4.60;;;;;;;12.16;100.00;96434.53;5072072;28;20209;-66
2023/05/01 01:20:23;;;;;;;5.80;4.83;;;;;;;12.12;100.00;96427.88;5073035;28;20218;-65
2023/05/01 01:23:04;;;;;;;5.97;5.27;;;;;;;12.03;100.00;96434.16;5073292;28;20671;-64
2023/05/01 01:25:50;;;;;;;5.37;4.87;;;;;;;12.01;100.00;96425.53;5073315;28;20190;-65
2023/05/01 01:28:36;;;;;;;5.43;4.93;;;;;;;12.02;100.00;96432.47;5073157;28;20203;-65
2023/05/01 01:31:11;;;;;;;5.70;5.00;;;;;;;12.06;100.00;96425.88;5073349;28;20284;-65
2023/05/01 01:33:50;;;;;;;5.93;5.40;;;;;;;11.95;100.00;96427.81;5072496;28;20600;-63
2023/05/01 01:36:21;;;;;;;6.00;4.97;;;;;;;11.92;100.00;96432.59;5072918;28;20574;-67
2023/05/01 01:38:57;;;;;;;5.90;5.20;;;;;;;11.93;100.00;96432.44;5072342;28;20217;-64
2023/05/01 01:41:27;;;;;;;6.03;5.40;;;;;;;11.93;100.00;96435.09;5071887;28;20232;-64
2023/05/01 01:43:58;;;;;;;6.00;5.40;;;;;;;11.95;100.00;96426.97;5071287;28;20210;-64
2023/05/01 01:46:27;;;;;;;5.80;5.30;;;;;;;11.89;100.00;96432.91;5072705;28;20236;-63
2023/05/01 01:48:58;;;;;;;6.13;5.50;;;;;;;11.86;100.00;96430.56;5075629;28;20278;-65
2023/05/01 01:51:25;;;;;;;6.13;5.60;;;;;;;11.91;100.00;96433.56;5076969;28;20198;-64
2023/05/01 01:53:56;;;;;;;6.37;5.87;;;;;;;11.85;100.00;96437.69;5079542;28;20207;-65
2023/05/01 01:56:26;;;;;;;6.67;5.97;;;;;;;11.73;100.00;96438.09;5093122;28;20183;-65
2023/05/01 01:58:54;;;;;;;6.30;5.70;;;;;;;11.71;100.00;96430.31;5096011;28;20213;-67
2023/05/01 02:01:28;;;;;;;6.57;5.93;;;;;;;11.78;100.00;96435.81;5075395;28;20210;-66
2023/05/01 02:03:57;;;;;;;6.20;5.67;;;;;;;11.76;100.00;96422.72;5071420;28;20248;-66
2023/05/01 02:06:24;;;;;;;6.20;5.60;;;;;;;11.75;100.00;96426.38;5071599;28;20270;-65
2023/05/01 02:08:51;;;;;;;6.10;5.70;;;;;;;11.67;100.00;96428.91;5076337;28;20199;-65
2023/05/01 02:11:19;;;;;;;6.57;5.97;;;;;;;11.64;100.00;96417.81;5076598;28;20194;-66
2023/05/01 02:13:46;;;;;;;6.17;5.77;;;;;;;11.63;100.00;96418.78;5079655;28;20195;-65
2023/05/01 02:16:15;;;;;;;6.03;5.63;;;;;;;11.66;100.00;96421.13;5093494;28;20199;-65
2023/05/01 02:18:46;;;;;;;7.00;6.30;;;;;;;11.66;100.00;96421.94;5091338;28;20280;-65
2023/05/01 02:21:14;;;;;;;6.70;6.10;;;;;;;11.65;100.00;96419.47;5084041;28;20236;-64
2023/05/01 02:23:42;;;;;;;6.67;6.07;;;;;;;11.65;100.00;96427.41;5071883;28;20213;-63
2023/05/01 02:26:09;;;;;;;7.47;6.77;;;;;;;11.64;100.00;96426.59;5072006;28;20207;-63
2023/05/01 02:28:40;;;;;;;7.37;6.00;;;;;;;11.65;100.00;96422.97;5070737;28;20190;-65
2023/05/01 02:31:07;;;;;;;6.73;6.23;;;;;;;11.67;100.00;96422.78;5070442;28;20301;-64
2023/05/01 02:33:33;;;;;;;9.10;6.20;;;;;;;11.64;100.00;96426.59;5071457;28;20214;-65
2023/05/01 02:36:00;;;;;;;6.47;5.90;;;;;;;11.66;100.00;96424.59;5071473;28;20534;-63
2023/05/01 02:38:31;;;;;;;7.47;6.77;;;;;;;11.62;100.00;96420.59;5071109;28;20230;-64
2023/05/01 02:40:58;;;;;;;6.40;5.90;;;;;;;11.60;100.00;96422.59;5071494;28;20182;-65
2023/05/01 02:43:25;;;;;;;6.50;5.90;;;;;;;11.58;100.00;96419.28;5070897;28;20217;-66
2023/05/01 02:45:56;;;;;;;6.87;6.30;;;;;;;11.59;100.00;96418.25;5070921;28;20206;-63
2023/05/01 02:48:25;;;;;;;6.90;6.07;;;;;;;11.61;100.00;96415.47;5071597;28;20837;-66
2023/05/01 02:50:57;;;;;;;6.47;5.80;;;;;;;11.58;100.00;96416.63;5070438;28;20209;-64
2023/05/01 02:53:25;;;;;;;6.87;6.27;;;;;;;11.53;100.00;96410.09;5071515;28;20208;-64
2023/05/01 02:55:53;;;;;;;7.57;6.87;;;;;;;11.52;100.00;96411.09;5071319;28;20553;-65
2023/05/01 02:58:21;;;;;;;7.50;6.53;;;;;;;11.52;100.00;96411.91;5069752;28;20233;-64
2023/05/01 03:00:49;;;;;;;6.93;6.33;;;;;;;11.56;100.00;96415.94;5071377;28;20226;-66
2023/05/01 03:03:16;;;;;;;6.80;6.10;;;;;;;11.62;100.00;96414.50;5071154;28;20217;-64
2023/05/01 03:05:43;;;;;;;7.10;6.60;;;;;;;11.52;100.00;96409.28;5070817;28;20202;-64
2023/05/01 03:08:10;;;;;;;6.47;5.87;;;;;;;11.54;100.00;96409.97;5070934;28;20199;-64
2023/05/01 03:10:37;;;;;;;9.00;6.13;;;;;;;11.58;100.00;96413.13;5071280;28;20252;-64
2023/05/01 03:13:04;;;;;;;7.33;6.60;;;;;;;11.52;100.00;96398.69;5069215;28;20635;-64
2023/05/01 03:15:31;;;;;;;6.70;6.20;;;;;;;11.42;100.00;96392.66;5069812;28;20255;-65
2023/05/01 03:17:58;;;;;;;6.60;6.00;;;;;;;11.43;100.00;96402.28;5069656;28;20222;-64
2023/05/01 03:20:24;;;;;;;7.00;6.27;;;;;;;11.37;100.00;96403.69;5070128;28;20567;-64
2023/05/01 03:22:51;;;;;;;6.50;6.00;;;;;;;11.32;100.00;96406.00;5069984;28;20228;-63
2023/05/01 03:25:18;;;;;;;6.80;6.20;;;;;;;11.33;100.00;96406.81;5070483;28;20202;-67
2023/05/01 03:27:44;;;;;;;6.97;6.37;;;;;;;11.34;100.00;96400.53;5070454;28;20221;-65
2023/05/01 03:30:12;;;;;;;6.77;6.27;;;;;;;11.30;100.00;96399.19;5070596;28;20214;-65
2023/05/01 03:32:41;;;;;;;7.93;7.13;;;;;;;11.28;100.00;96401.16;5070385;28;20233;-65
2023/05/01 03:35:08;;;;;;;7.33;6.73;;;;;;;11.27;100.00;96402.97;5070086;28;20220;-64
2023/05/01 03:37:35;;;;;;;7.30;6.70;;;;;;;11.32;100.00;96403.34;5070727;28;20245;-63
2023/05/01 03:40:01;;;;;;;7.40;6.80;;;;;;;11.30;100.00;96397.34;5072625;28;20226;-66
2023/05/01 03:42:28;;;;;;;7.23;6.63;;;;;;;11.28;100.00;96404.63;5072823;28;20207;-65
2023/05/01 03:44:55;;;;;;;7.07;6.57;;;;;;;11.33;100.00;96391.78;5071115;28;20293;-63
2023/05/01 03:47:23;;;;;;;6.60;6.10;;;;;;;11.28;100.00;96393.22;5072037;28;20224;-65
2023/05/01 03:49:49;;;;;;;7.33;6.67;;;;;;;11.31;100.00;96400.84;5071062;28;20539;-63
2023/05/01 03:52:16;;;;;;;7.50;6.90;;;;;;;11.37;100.00;96400.25;5070892;28;20251;-66
2023/05/01 03:54:43;;;;;;;7.20;6.50;;;;;;;11.40;100.00;96399.94;5074406;28;20206;-62
2023/05/01 03:57:09;;;;;;;7.50;6.93;;;;;;;11.36;100.00;96393.28;5074903;28;20202;-63
2023/05/01 03:59:36;;;;;;;7.57;6.97;;;;;;;11.36;100.00;96398.56;5071961;28;20713;-62
2023/05/01 04:02:03;;;;;;;7.03;6.53;;;;;;;11.35;100.00;96402.19;5073184;28;20297;-65
2023/05/01 04:04:32;;;;;;;6.70;6.20;;;;;;;11.35;100.00;96402.19;5078599;28;20194;-63
2023/05/01 04:06:58;;;;;;;7.07;6.47;;;;;;;11.29;100.00;96406.31;5074514;28;20289;-65
2023/05/01 04:09:25;;;;;;;6.70;6.17;;;;;;;11.25;100.00;96397.00;5076665;28;20195;-64
2023/05/01 04:11:52;;;;;;;7.13;6.63;;;;;;;11.28;100.00;96401.16;5079068;28;20216;-64
2023/05/01 04:14:20;;;;;;;7.03;6.50;;;;;;;11.30;100.00;96396.56;5078387;28;20203;-63
2023/05/01 04:16:46;;;;;;;6.30;5.80;;;;;;;11.37;100.00;96400.25;5078120;28;20638;-63
2023/05/01 04:19:13;;;;;;;7.00;6.50;;;;;;;11.36;100.00;96403.88;5078237;28;20302;-65
2023/05/01 04:21:41;;;;;;;8.77;7.13;;;;;;;11.36;100.00;96410.00;5077024;28;20202;-66
2023/05/01 04:24:08;;;;;;;7.57;6.97;;;;;;;11.38;100.00;96402.72;5077035;28;20209;-65
2023/05/01 04:26:34;;;;;;;7.70;7.10;;;;;;;11.37;100.00;96400.25;5077347;28;20562;-63
2023/05/01 04:29:01;;;;;;;7.67;7.07;;;;;;;11.36;100.00;96393.28;5075297;28;20206;-65
2023/05/01 04:31:27;;;;;;;7.13;6.53;;;;;;;11.32;100.00;96400.69;5075785;28;20285;-65
2023/05/01 04:33:54;;;;;;;7.43;6.73;;;;;;;11.30;100.00;96401.84;5076283;28;20206;-64
2023/05/01 04:36:23;;;;;;;7.47;6.87;;;;;;;11.33;100.00;96409.47;5076910;28;20206;-65
2023/05/01 04:38:51;;;;;;;7.03;6.50;;;;;;;11.32;100.00;96410.44;5076320;28;20229;-64
2023/05/01 04:41:18;;;;;;;7.00;6.50;;;;;;;11.33;100.00;96405.00;5075819;28;20201;-65
2023/05/01 04:43:45;;;;;;;7.27;6.77;;;;;;;11.33;100.00;96410.31;5074885;28;20643;-65
2023/05/01 04:46:13;;;;;;;7.40;6.80;;;;;;;11.35;100.00;96418.09;5074959;28;20199;-62
2023/05/01 04:48:40;;;;;;;7.27;6.60;;;;;;;11.41;100.00;96410.34;5075390;28;20309;-65
2023/05/01 04:51:06;;;;;;;7.80;7.20;;;;;;;11.41;100.00;96420.09;5075076;28;20265;-65
2023/05/01 04:53:33;;;;;;;7.20;6.70;;;;;;;11.44;100.00;96411.88;5073100;28;20213;-63
2023/05/01 04:56:02;;;;;;;7.40;6.80;;;;;;;11.44;100.00;96422.47;5073700;28;20517;-64
2023/05/01 04:58:28;;;;;;;8.13;7.33;;;;;;;11.47;100.00;96414.22;5073060;28;20214;-64
2023/05/01 05:00:55;;;;;;;7.73;7.13;;;;;;;11.53;100.00;96418.88;5074134;28;20210;-63
2023/05/01 05:03:22;;;;;;;7.70;7.10;;;;;;;11.55;100.00;96424.84;5073616;28;20211;-66
2023/05/01 05:05:50;;;;;;;8.00;7.40;;;;;;;11.57;100.00;96428.19;5074315;28;20209;-66
2023/05/01 05:08:16;;;;;;;7.97;7.17;;;;;;;11.56;100.00;96425.69;5073944;28;20210;-65
2023/05/01 05:10:43;;;;;;;8.30;7.70;;;;;;;11.62;100.00;96438.34;5073563;28;20217;-65
2023/05/01 05:13:11;;;;;;;8.50;7.67;;;;;;;11.59;100.00;96426.22;5072378;28;20202;-64
2023/05/01 05:15:37;;;;;;;8.60;7.90;;;;;;;11.57;100.00;96436.13;5072545;28;20626;-64
2023/05/01 05:18:05;;;;;;;7.73;7.13;;;;;;;11.67;100.00;96434.22;5072770;28;20203;-65
2023/05/01 05:20:32;;;;;;;8.60;7.80;;;;;;;11.65;100.00;96436.22;5071868;28;20226;-65
2023/05/01 05:22:59;;;;;;;8.20;7.40;;;;;;;11.63;100.00;96438.16;5072233;28;20210;-63
2023/05/01 05:25:25;;;;;;;8.43;7.73;;;;;;;11.63;100.00;96432.03;5072175;28;20268;-64
2023/05/01 05:27:53;;;;;;;8.10;7.30;;;;;;;11.65;100.00;96438.03;5072731;28;20198;-64
2023/05/01 05:30:21;;;;;;;9.83;8.83;;;;;;;11.66;100.00;96429.91;5072361;28;20216;-65
2023/05/01 05:32:47;;;;;;;8.10;7.40;;;;;;;11.72;100.00;96437.28;5073214;28;20210;-64
2023/05/01 05:35:14;;;;;;;8.30;7.60;;;;;;;11.71;100.00;96438.25;5073386;28;20222;-65
2023/05/01 05:37:41;;;;;;;7.87;7.17;;;;;;;11.77;100.00;96440.28;5073512;28;20786;-66
2023/05/01 05:40:09;;;;;;;7.97;7.37;;;;;;;11.77;100.00;96429.69;5074687;28;20670;-67
2023/05/01 05:42:36;;;;;;;8.13;7.47;;;;;;;11.79;100.00;96443.63;5073700;28;20215;-65
2023/05/01 05:45:02;;;;;;;7.73;7.10;;;;;;;11.77;100.00;96439.44;5072498;28;20228;-66
2023/05/01 05:47:30;;;;;;;7.67;6.93;;;;;;;11.79;100.00;96443.63;5072645;28;20252;-65
2023/05/01 05:49:56;;;;;;;8.07;7.40;;;;;;;11.78;100.00;96441.94;5073013;28;20198;-64
2023/05/01 05:52:23;;;;;;;6.93;6.43;;;;;;;11.81;100.00;96435.50;5072551;28;20210;-65
2023/05/01 05:54:51;;;;;;;7.07;6.50;;;;;;;11.82;100.00;96445.97;5073037;28;20209;-65
2023/05/01 05:57:18;;;;;;;7.33;6.73;;;;;;;11.81;100.00;96441.63;5073400;28;20607;-66
2023/05/01 05:59:44;;;;;;;6.80;6.20;;;;;;;11.78;100.00;96444.59;5072479;28;20568;-66
2023/05/01 06:02:10;;;;;;;6.13;5.63;;;;;;;11.83;100.00;96438.84;5072922;28;20205;-65
2023/05/01 06:04:38;;;;;;;6.80;6.30;;;;;;;11.81;100.00;96444.28;5072243;28;20213;-66
2023/05/01 06:07:05;;;;;;;6.63;6.13;;;;;;;11.87;100.00;96442.81;5072221;28;20209;-64
2023/05/01 06:09:32;;;;;;;6.10;5.60;;;;;;;11.92;100.00;96444.03;5070916;28;20203;-64
2023/05/01 06:11:59;;;;;;;6.80;6.20;;;;;;;11.93;100.00;96437.75;5074773;28;20202;-66
2023/05/01 06:14:26;;;;;;;5.97;5.57;;;;;;;11.94;100.00;96443.84;5071786;28;20203;-64
2023/05/01 06:16:52;;;;;;;5.87;5.47;;;;;;;11.96;100.00;96445.38;5073921;28;20202;-65
2023/05/01 06:19:19;;;;;;;7.13;6.53;;;;;;;12.00;100.00;96443.25;5075842;28;20234;-65
2023/05/01 06:21:47;;;;;;;7.33;6.73;;;;;;;12.02;100.00;96437.78;5074345;28;20260;-65
2023/05/01 06:24:14;;;;;;;7.00;6.50;;;;;;;12.09;100.00;96444.13;5071260;28;20214;-65
2023/05/01 06:26:41;;;;;;;6.83;6.27;;;;;;;12.11;100.00;96442.16;5072506;28;20260;-64
2023/05/01 06:29:07;;;;;;;6.97;6.47;;;;;;;12.14;100.00;96440.03;5071591;28;20206;-64
2023/05/01 06:31:34;;;;;;;6.80;6.20;;;;;;;12.24;100.00;96440.72;5075593;28;20608;-65
2023/05/01 06:34:02;;;;;;;6.60;5.97;;;;;;;12.27;100.00;96437.75;5081233;28;20206;-66
2023/05/01 06:36:29;;;;;;;6.50;6.00;;;;;;;12.21;100.00;96441.06;5083656;28;20241;-66
2023/05/01 06:38:57;;;;;;;6.00;5.60;;;;;;;12.25;100.00;96438.91;5081998;28;20213;-66
2023/05/01 06:41:24;;;;;;;6.07;5.57;;;;;;;12.30;100.00;96447.22;5082645;28;20229;-67
2023/05/01 06:43:51;;;;;;;5.83;5.43;;;;;;;12.34;100.00;96437.94;5074387;28;20206;-65
2023/05/01 06:46:17;;;;;;;6.30;5.90;;;;;;;12.40;100.00;96447.91;5071761;28;20198;-65
2023/05/01 06:48:44;;;;;;;5.60;5.20;;;;;;;12.42;100.00;96444.13;5071062;28;20218;-65
2023/05/01 06:51:13;;;;;;;5.77;5.20;;;;;;;12.47;100.00;96447.13;5071305;28;20560;-65
2023/05/01 06:53:40;;;;;;;5.93;5.43;;;;;;;12.36;100.00;96446.59;5071021;28;20226;-65
2023/05/01 06:56:08;;;;;;;5.33;4.93;;;;;;;12.51;100.00;96455.59;5071222;28;20194;-63
2023/05/01 06:58:35;;;;;;;6.17;5.77;;;;;;;12.56;100.00;96453.31;5070395;28;20219;-63
2023/05/01 07:01:01;;;;;;;6.00;5.60;;;;;;;12.58;100.00;96456.63;5069274;28;20243;-64
2023/05/01 07:03:28;;;;;;;6.23;5.83;;;;;;;12.64;100.00;96453.34;5070979;28;20229;-65
2023/05/01 07:05:55;;;;;;;6.17;5.67;;;;;;;12.62;100.00;96457.97;5071289;28;20205;-69
2023/05/01 07:08:23;;;;;;;5.20;4.80;;;;;;;12.70;100.00;96451.88;5070330;28;20207;-64
2023/05/01 07:10:50;;;;;;;5.80;5.30;;;;;;;12.75;100.00;96457.53;5070690;28;20213;-64
2023/05/01 07:13:18;;;;;;;6.33;5.83;;;;;;;12.78;100.00;96463.34;5070298;28;20206;-66
2023/05/01 07:15:44;;;;;;;6.10;5.60;;;;;;;12.71;100.00;96459.69;5070852;28;20199;-64
2023/05/01 07:18:12;;;;;;;6.10;5.70;;;;;;;12.78;100.00;96455.38;5069830;28;20203;-66
2023/05/01 07:20:39;;;;;;;5.93;5.53;;;;;;;12.79;100.00;96454.38;5070217;28;20233;-64
2023/05/01 07:23:05;;;;;;;5.97;5.47;;;;;;;12.80;100.00;96461.34;5070100;28;20198;-65
2023/05/01 07:25:32;;;;;;;6.17;5.73;;;;;;;12.91;100.00;96461.06;5071250;28;20293;-66
2023/05/01 07:28:03;;;;;;;5.70;5.30;;;;;;;12.92;100.00;96460.06;5070490;28;20222;-66
2023/05/01 07:30:32;;;;;;;5.70;5.30;;;;;;;13.04;100.00;96462.44;5070863;28;20635;-66
2023/05/01 07:32:58;;;;;;;5.50;5.10;;;;;;;12.97;100.00;96463.06;5070981;28;21113;-66
2023/05/01 07:35:25;;;;;;;6.07;5.60;;;;;;;13.03;100.00;96466.91;5070751;28;20710;-66
2023/05/01 07:37:52;;;;;;;5.83;5.20;;;;;;;13.06;100.00;96460.44;5070178;28;20677;-64
2023/05/01 07:40:21;;;;;;;5.70;5.30;;;;;;;13.15;100.00;96460.31;5071174;28;20242;-66
2023/05/01 07:42:47;;;;;;;5.00;4.70;;;;;;;13.06;100.00;96463.91;5070473;28;20234;-66
2023/05/01 07:45:14;;;;;;;4.77;4.47;;;;;;;13.22;100.00;96463.13;5070737;28;20225;-65
2023/05/01 07:47:42;;;;;;;4.40;4.10;;;;;;;13.12;100.00;96465.09;5070253;28;20199;-66
2023/05/01 07:50:18;;;;;;;5.30;4.90;;;;;;;13.17;100.00;96463.66;5071581;28;20198;-66
2023/05/01 07:52:45;;;;;;;5.00;4.60;;;;;;;13.20;100.00;96467.78;5071274;28;20206;-66
2023/05/01 07:55:12;;;;;;;4.80;4.50;;;;;;;13.17;100.00;96468.13;5070837;28;20581;-66
2023/05/01 07:57:38;;;;;;;4.67;4.37;;;;;;;13.26;100.00;96467.13;5069770;28;20623;-65
2023/05/01 08:00:08;;;;;;;4.97;4.60;;;;;;;13.21;100.00;96474.78;5070236;28;20226;-66
2023/05/01 08:02:34;;;;;;;4.97;4.47;;;;;;;13.26;100.00;96475.09;5070756;28;20202;-66
2023/05/01 08:05:02;;;;;;;4.50;4.10;;;;;;;13.27;100.00;96479.41;5071574;28;20203;-64
2023/05/01 08:07:29;;;;;;;4.00;3.80;;;;;;;13.27;100.00;96474.94;5071274;28;20604;-65
2023/05/01 08:09:59;;;;;;;4.57;4.23;;;;;;;13.36;100.00;96481.06;5072256;28;20297;-64
2023/05/01 08:12:25;;;;;;;4.60;4.20;;;;;;;13.37;100.00;96485.41;5073324;28;20202;-64
2023/05/01 08:14:52;;;;;;;4.17;3.87;;;;;;;13.41;100.00;96486.75;5071617;28;20195;-65
2023/05/01 08:17:19;;;;;;;4.03;3.73;;;;;;;13.45;100.00;96488.91;5074950;28;20198;-65
2023/05/01 08:19:45;;;;;;;4.40;4.10;;;;;;;13.46;100.00;96485.25;5077840;28;20234;-65
2023/05/01 08:22:13;;;;;;;3.97;3.70;;;;;;;13.51;100.00;96487.41;5077002;28;20589;-66
2023/05/01 08:24:40;;;;;;;4.03;3.77;;;;;;;13.51;100.00;96482.09;5073000;28;20214;-64
2023/05/01 08:27:07;;;;;;;4.40;4.10;;;;;;;13.57;100.00;96486.75;5071924;28;20214;-67
2023/05/01 08:29:34;;;;;;;3.90;3.70;;;;;;;13.56;100.00;96490.41;5072171;28;20278;-63
2023/05/01 08:32:00;;;;;;;3.97;3.77;;;;;;;13.62;100.00;96492.41;5072956;28;20207;-64
2023/05/01 08:34:27;;;;;;;3.50;3.30;;;;;;;13.68;100.00;96490.91;5072174;28;20195;-63
2023/05/01 08:36:54;;;;;;;4.00;3.80;;;;;;;13.65;100.00;96484.09;5070655;28;20194;-65
2023/05/01 08:39:24;;;;;;;4.20;3.90;;;;;;;13.67;100.00;96492.75;5070543;28;20198;-64
2023/05/01 08:41:51;;;;;;;4.10;3.80;;;;;;;13.63;100.00;96482.63;5072415;28;20210;-65
2023/05/01 08:44:20;;;;;;;3.50;3.30;;;;;;;13.68;100.00;96489.06;5069839;28;20226;-66
2023/05/01 08:46:47;;;;;;;4.07;3.87;;;;;;;13.67;100.00;96491.91;5070522;28;21379;-64
2023/05/01 08:49:16;;;;;;;3.93;3.73;;;;;;;13.59;100.00;96491.91;5070191;28;20222;-66
2023/05/01 08:51:42;;;;;;;4.20;3.80;;;;;;;13.58;100.00;96496.38;5076615;28;20218;-66
2023/05/01 08:54:09;;;;;;;3.93;3.67;;;;;;;13.58;100.00;96491.06;5075953;28;20630;-65
2023/05/01 08:56:38;;;;;;;4.60;3.53;;;;;;;13.58;100.00;96495.53;5069177;28;20553;-67
2023/05/01 08:59:06;;;;;;;3.43;3.23;;;;;;;13.66;100.00;96493.75;5073020;28;21370;-65
2023/05/01 09:01:33;;;;;;;4.40;4.00;;;;;;;13.66;100.00;96491.09;5072860;28;20685;-65
2023/05/01 09:04:02;;;;;;;3.80;3.60;;;;;;;13.69;100.00;96489.91;5073384;28;20198;-64
2023/05/01 09:06:31;;;;;;;4.13;3.83;;;;;;;13.76;100.00;96490.91;5072979;28;20221;-65
2023/05/01 09:08:57;;;;;;;4.20;3.90;;;;;;;13.81;100.00;96494.75;5073098;28;20553;-64
2023/05/01 09:11:24;;;;;;;4.60;4.10;;;;;;;13.84;100.00;96498.88;5073390;28;20214;-64
2023/05/01 09:13:53;;;;;;;3.50;3.30;;;;;;;13.89;100.00;96502.69;5072901;28;20293;-64
2023/05/01 09:16:20;;;;;;;4.60;4.30;;;;;;;13.94;100.00;96495.06;5074328;28;20544;-64
2023/05/01 09:18:47;;;;;;;3.70;3.50;;;;;;;13.89;100.00;96500.03;5073414;28;20198;-65
2023/05/01 09:21:14;;;;;;;3.83;3.63;;;;;;;13.96;100.00;96501.03;5072312;28;20241;-66
2023/05/01 09:23:41;;;;;;;4.10;3.80;;;;;;;13.95;100.00;96499.38;5074146;28;20210;-65
2023/05/01 09:26:08;;;;;;;4.00;3.70;;;;;;;13.94;100.00;96505.69;5075923;28;20214;-65
2023/05/01 09:28:41;;;;;;;3.70;3.50;;;;;;;13.98;100.00;96508.84;5079994;28;20207;-67
2023/05/01 09:31:22;;;;;;;3.53;3.33;;;;;;;14.00;100.00;96508.66;5076181;28;20206;-65
2023/05/01 09:33:54;;;;;;;3.63;3.33;;;;;;;14.07;100.00;96509.66;5073354;28;20283;-65
2023/05/01 09:36:20;;;;;;;3.57;3.30;;;;;;;14.23;100.00;96507.00;5074752;28;20202;-67
2023/05/01 09:38:47;;;;;;;3.50;3.20;;;;;;;14.27;100.00;96516.31;5075370;28;20487;-67
2023/05/01 09:41:16;;;;;;;3.30;3.10;;;;;;;14.23;100.00;96515.81;5095834;28;20218;-65
2023/05/01 09:43:49;;;;;;;3.17;3.00;;;;;;;14.36;100.00;96509.97;5096936;28;20194;-68
2023/05/01 09:46:15;;;;;;;3.50;3.30;;;;;;;14.40;100.00;96516.63;5095643;28;20221;-66
2023/05/01 09:48:52;;;;;;;3.60;3.40;;;;;;;14.60;100.00;96515.25;5090920;28;20221;-68
2023/05/01 09:51:23;;;;;;;4.13;3.83;;;;;;;14.56;100.00;96511.25;5089675;28;20186;-66
2023/05/01 09:53:51;;;;;;;3.30;3.10;;;;;;;14.57;100.00;96512.94;5088914;28;20186;-66
2023/05/01 09:56:17;;;;;;;3.17;3.07;;;;;;;14.69;100.00;96508.91;5088599;28;20233;-68
2023/05/01 09:58:44;;;;;;;3.00;2.80;;;;;;;14.78;100.00;96515.84;5088646;28;20221;-65
2023/05/01 10:01:10;;;;;;;3.00;2.73;;;;;;;14.78;100.00;96507.88;5072914;28;20222;-67
2023/05/01 10:03:37;;;;;;;2.90;2.80;;;;;;;14.90;100.00;96508.31;5073056;28;20199;-66
2023/05/01 10:06:06;;;;;;;4.05;3.75;;;;;;;14.87;100.00;96508.69;5073498;28;20202;-65
2023/05/01 10:08:46;;;;;;;3.05;2.75;;;;;;;15.00;100.00;96511.59;5072159;28;20547;-65
2023/05/01 10:11:12;;;;;;;3.03;2.83;;;;;;;15.24;100.00;96516.81;5072204;28;20202;-66
2023/05/01 10:13:39;;;;;;;3.45;3.15;;;;;;;15.31;100.00;96507.09;5072079;28;20213;-65
2023/05/01 10:16:07;;;;;;;2.95;2.75;;;;;;;15.24;100.00;96511.47;5071694;28;20225;-64
2023/05/01 10:18:34;;;;;;;2.80;2.60;;;;;;;15.21;100.00;96506.50;5072414;28;20206;-66
2023/05/01 10:21:01;;;;;;;3.00;2.80;;;;;;;15.33;100.00;96507.78;5072057;28;20246;-64
2023/05/01 10:23:30;;;;;;;2.80;2.60;;;;;;;15.41;100.00;96506.88;5072204;28;20194;-65
2023/05/01 10:25:57;;;;;;;2.50;2.40;;;;;;;15.53;100.00;96500.16;5071299;28;20206;-66
2023/05/01 10:28:27;;;;;;;2.90;2.70;;;;;;;15.53;100.00;96510.84;5071738;28;20276;-65
2023/05/01 10:30:54;;;;;;;2.28;2.17;;;;;;;15.74;100.00;96505.69;5071616;28;20211;-65
2023/05/01 10:33:20;;;;;;;2.33;2.13;;;;;;;15.91;100.00;96504.53;5070769;28;20203;-65
2023/05/01 10:35:50;;;;;;;2.50;2.33;;;;;;;15.96;100.00;96506.69;5072025;28;20209;-64
2023/05/01 10:38:22;;;;;;;2.15;2.05;;;;;;;16.00;100.00;96502.66;5071159;28;20281;-64
2023/05/01 10:40:51;;;;;;;2.20;2.10;;;;;;;16.09;100.00;96506.88;5079416;28;20238;-64
2023/05/01 10:43:19;;;;;;;1.60;1.50;;;;;;;16.15;100.00;96497.34;5092637;28;20191;-64
2023/05/01 10:45:48;;;;;;;2.30;1.67;;;;;;;16.13;100.00;96496.69;5085298;28;20207;-64
2023/05/01 10:48:48;;;;;;;2.47;2.28;;;;;;;16.20;97.99;96502.97;5071404;28;20206;-64
2023/05/01 10:51:16;;;;;;;1.80;1.70;;;;;;;15.98;100.00;96498.50;5070627;28;20206;-64
2023/05/01 10:53:44;;;;;;;1.83;1.73;;;;;;;15.91;97.54;96503.72;5071033;28;20268;-66
2023/05/01 10:56:42;;;;;;;1.55;1.55;;;;;;;15.67;100.00;96502.06;5070742;28;20202;-65
2023/05/01 10:59:10;;;;;;;1.83;1.73;;;;;;;15.49;100.00;96504.19;5071701;28;20202;-64
2023/05/01 11:01:38;;;;;;;1.50;1.40;;;;;;;15.61;100.00;96501.97;5089699;28;20246;-66
2023/05/01 11:04:08;;;;;;;2.13;2.03;;;;;;;15.43;100.00;96500.38;5091567;28;20203;-65
2023/05/01 11:06:35;;;;;;;1.95;1.85;;;;;;;15.62;100.00;96495.63;5082264;28;20202;-65
2023/05/01 11:09:03;;;;;;;5.88;5.38;;;;;;;15.49;100.00;96496.19;5070750;28;20264;-64
2023/05/01 11:11:50;;;;;;;3.47;3.28;;;;;;;15.52;100.00;96501.16;5071098;28;20190;-64
2023/05/01 11:14:17;;;;;;;1.60;1.48;;;;;;;15.64;100.00;96501.59;5071215;28;20237;-64
2023/05/01 11:16:47;;;;;;;1.17;1.17;;;;;;;15.69;100.00;96497.41;5070754;28;20209;-63
2023/05/01 11:19:51;;;;;;;1.75;1.30;;;;;;;15.66;100.00;96503.06;5070336;28;20198;-65
2023/05/01 11:22:18;;;;;;;1.52;1.42;;;;;;;15.56;100.00;96498.97;5070747;28;20263;-67
2023/05/01 11:24:44;;;;;;;1.70;1.60;;;;;;;15.50;98.94;96507.69;5071074;28;20714;-66
2023/05/01 11:27:16;;;;;;;1.13;1.13;;;;;;;15.31;100.00;96493.78;5071167;28;20214;-66
2023/05/01 11:29:47;;;;;;;1.27;1.23;;;;;;;15.26;100.00;96498.00;5068108;28;20210;-67